Time;durP1;ratioP1;P1;durP2;ratioP2;P2;SDS_P1;SDS_P2;PMS_P1;PMS_P2;Temp;Humidity;BMP_temperature;BMP_pressure;BME280_temperature;BME280_humidity;BME280_pressure;Samples;Min_cycle;Max_cycle;Signal;HPM_P1;HPM_P2
2021/12/17 00:02:52;;;;;;;12.57;10.57;;;;;;;;;;4998635;28;20228;-74
2021/12/17 00:05:11;;;;;;;12.57;10.47;;;;;;;;;;4996242;28;20237;-74
2021/12/17 00:07:37;;;;;;;13.90;11.27;;;;;;;;;;5010763;28;20319;-74
2021/12/17 00:10:21;;;;;;;14.87;11.73;;;;;;;;;;5029951;28;20318;-74
2021/12/17 00:12:46;;;;;;;15.73;12.43;;;;;;;;;;5011568;28;20245;-73
2021/12/17 00:15:14;;;;;;;16.40;13.07;;;;;;;;;;4976548;28;20716;-74
2021/12/17 00:17:52;;;;;;;17.37;13.30;;;;;;;;;;5025577;28;20220;-73
2021/12/17 00:20:41;;;;;;;17.00;13.80;;;;;;;;;;5028369;28;20240;-73
2021/12/17 00:53:31;;;;;;;25.47;18.40;;;;;;;;;;5029690;28;20304;-74
2021/12/17 00:55:56;;;;;;;26.87;19.53;;;;;;;;;;5032274;28;20801;-74
2021/12/17 00:58:24;;;;;;;27.40;19.57;;;;;;;;;;4999361;28;20227;-74
2021/12/17 01:00:52;;;;;;;27.10;19.80;;;;;;;;;;4996445;28;20241;-73
2021/12/17 01:03:22;;;;;;;29.90;21.07;;;;;;;;;;5010159;28;20242;-75
2021/12/17 01:05:50;;;;;;;27.97;20.73;;;;;;;;;;5016727;28;20747;-74
2021/12/17 01:08:15;;;;;;;30.23;21.20;;;;;;;;;;5031929;28;20228;-74
2021/12/17 01:10:47;;;;;;;26.73;19.37;;;;;;;;;;5032191;28;20224;-74
2021/12/17 01:13:51;;;;;;;28.37;19.13;;;;;;;;;;4961013;28;20226;-74
2021/12/17 01:16:25;;;;;;;26.37;19.57;;;;;;;;;;4957162;28;20253;-74
2021/12/17 01:19:21;;;;;;;26.27;19.47;;;;;;;;;;4996022;28;20319;-74
2021/12/17 01:25:11;;;;;;;24.50;18.13;;;;;;;;;;5032429;28;20235;-73
2021/12/17 01:37:50;;;;;;;20.87;14.27;;;;;;;;;;5003605;28;20328;-74
2021/12/17 01:42:30;;;;;;;20.77;14.20;;;;;;;;;;5014053;28;20228;-73
2021/12/17 01:44:56;;;;;;;20.10;13.37;;;;;;;;;;5015306;28;20307;-73
2021/12/17 01:47:21;;;;;;;18.90;12.10;;;;;;;;;;5013388;28;22822;-73
2021/12/17 01:56:01;;;;;;;16.90;12.47;;;;;;;;;;5001187;28;20216;-73
2021/12/17 02:01:12;;;;;;;15.20;10.47;;;;;;;;;;5011012;28;20236;-74
2021/12/17 02:03:40;;;;;;;14.03;10.20;;;;;;;;;;4988797;28;20724;-74
2021/12/17 02:06:06;;;;;;;15.60;9.83;;;;;;;;;;4994734;28;20702;-74
2021/12/17 02:08:35;;;;;;;14.03;10.17;;;;;;;;;;4978440;28;20308;-74
2021/12/17 02:19:44;;;;;;;13.97;9.10;;;;;;;;;;5002186;28;20304;-74
2021/12/17 02:33:28;;;;;;;13.73;8.73;;;;;;;;;;5000990;28;20216;-74
2021/12/17 02:36:00;;;;;;;13.07;8.20;;;;;;;;;;4998583;28;20212;-74
2021/12/17 02:38:30;;;;;;;12.53;7.57;;;;;;;;;;5026994;28;20211;-74
2021/12/17 02:46:52;;;;;;;14.07;9.00;;;;;;;;;;5029912;28;20803;-74
2021/12/17 02:49:18;;;;;;;14.03;8.37;;;;;;;;;;4998847;28;20220;-74
2021/12/17 02:51:49;;;;;;;15.57;9.00;;;;;;;;;;4994086;28;20232;-74
2021/12/17 02:54:17;;;;;;;14.33;8.77;;;;;;;;;;4982375;28;20248;-74
2021/12/17 02:56:43;;;;;;;13.43;7.80;;;;;;;;;;4994671;28;20223;-74
2021/12/17 02:59:13;;;;;;;12.40;7.50;;;;;;;;;;4993781;28;20303;-75
2021/12/17 03:01:45;;;;;;;11.60;7.03;;;;;;;;;;5010254;28;20216;-74
2021/12/17 03:04:11;;;;;;;13.80;8.37;;;;;;;;;;4996785;28;20220;-74
2021/12/17 03:06:37;;;;;;;14.13;8.00;;;;;;;;;;5010136;28;20208;-75
2021/12/17 03:09:04;;;;;;;13.20;8.50;;;;;;;;;;4993545;28;20627;-74
2021/12/17 03:11:32;;;;;;;14.73;8.80;;;;;;;;;;5009849;28;20220;-74
2021/12/17 03:14:02;;;;;;;13.93;8.50;;;;;;;;;;4981106;28;20580;-74
2021/12/17 03:16:53;;;;;;;13.37;7.60;;;;;;;;;;5014054;28;20222;-74
2021/12/17 03:23:26;;;;;;;13.83;7.93;;;;;;;;;;4996806;28;20238;-74
2021/12/17 03:24:56;;;;;;;12.10;7.37;;;;;;;;;;5001611;28;20221;-74
2021/12/17 03:27:22;;;;;;;10.53;6.73;;;;;;;;;;4996995;28;20234;-74
2021/12/17 03:29:49;;;;;;;12.23;6.73;;;;;;;;;;4994429;28;20224;-75
2021/12/17 03:32:22;;;;;;;12.93;6.90;;;;;;;;;;5013540;28;20634;-74
2021/12/17 03:34:50;;;;;;;12.63;6.93;;;;;;;;;;4978009;28;20221;-75
2021/12/17 03:37:16;;;;;;;12.30;6.10;;;;;;;;;;4993584;28;20315;-74
2021/12/17 03:39:50;;;;;;;9.47;5.77;;;;;;;;;;4980798;28;20240;-74
2021/12/17 03:42:15;;;;;;;9.03;5.50;;;;;;;;;;5009175;28;20255;-74
2021/12/17 03:44:48;;;;;;;9.80;5.90;;;;;;;;;;5013190;28;20216;-74
2021/12/17 03:47:37;;;;;;;8.43;4.60;;;;;;;;;;5011110;28;20734;-75
2021/12/17 03:50:16;;;;;;;7.53;4.23;;;;;;;;;;4994685;28;20224;-74
2021/12/17 03:52:41;;;;;;;7.37;4.33;;;;;;;;;;4992984;28;20307;-74
2021/12/17 03:55:10;;;;;;;8.03;4.00;;;;;;;;;;4996400;28;20235;-74
2021/12/17 03:57:44;;;;;;;6.80;4.17;;;;;;;;;;5009438;28;20220;-74
2021/12/17 04:00:10;;;;;;;4.47;3.33;;;;;;;;;;5017936;28;20224;-74
2021/12/17 04:02:52;;;;;;;6.23;3.53;;;;;;;;;;5032980;28;20686;-74
2021/12/17 04:05:33;;;;;;;6.57;3.43;;;;;;;;;;5009539;28;20722;-74
2021/12/17 04:08:23;;;;;;;5.97;3.67;;;;;;;;;;4999634;28;20243;-74
2021/12/17 04:11:09;;;;;;;5.07;3.33;;;;;;;;;;5030291;28;20267;-75
2021/12/17 04:13:38;;;;;;;5.40;3.30;;;;;;;;;;5019879;28;20220;-74
2021/12/17 04:16:10;;;;;;;5.57;3.77;;;;;;;;;;5006794;28;20217;-75
2021/12/17 04:18:41;;;;;;;6.37;3.50;;;;;;;;;;5013813;28;20295;-75
2021/12/17 04:21:16;;;;;;;5.60;3.30;;;;;;;;;;5008804;28;20335;-74
2021/12/17 04:23:50;;;;;;;5.80;3.60;;;;;;;;;;5032956;28;20224;-74
2021/12/17 04:26:20;;;;;;;6.20;4.17;;;;;;;;;;5006232;28;20224;-73
2021/12/17 04:28:52;;;;;;;7.47;4.23;;;;;;;;;;5015457;28;20261;-74
2021/12/17 04:31:27;;;;;;;8.00;4.77;;;;;;;;;;5000982;28;20216;-74
2021/12/17 04:33:57;;;;;;;7.93;4.40;;;;;;;;;;5005894;28;20211;-73
2021/12/17 04:36:31;;;;;;;6.37;4.13;;;;;;;;;;4992066;28;20651;-74
2021/12/17 04:39:03;;;;;;;7.27;4.27;;;;;;;;;;5007865;28;20307;-73
2021/12/17 04:44:23;;;;;;;6.37;4.43;;;;;;;;;;4998821;28;20239;-73
2021/12/17 04:46:59;;;;;;;6.73;4.23;;;;;;;;;;4997486;28;20303;-73
2021/12/17 04:57:58;;;;;;;9.00;4.63;;;;;;;;;;4998772;28;20227;-75
2021/12/17 05:00:30;;;;;;;6.33;4.87;;;;;;;;;;4996553;28;21007;-75
2021/12/17 05:03:10;;;;;;;9.47;5.20;;;;;;;;;;5012893;28;20671;-75
2021/12/17 05:05:40;;;;;;;7.13;4.70;;;;;;;;;;4982143;28;20221;-74
2021/12/17 05:08:21;;;;;;;9.43;6.23;;;;;;;;;;4986330;28;20226;-75
2021/12/17 05:19:26;;;;;;;8.43;5.43;;;;;;;;;;5003433;28;20711;-75
2021/12/17 05:21:56;;;;;;;7.83;5.80;;;;;;;;;;4997216;28;20767;-74
2021/12/17 05:24:27;;;;;;;8.40;5.90;;;;;;;;;;4995506;28;20229;-74
2021/12/17 05:26:55;;;;;;;8.83;6.10;;;;;;;;;;4985190;28;20209;-74
2021/12/17 05:29:24;;;;;;;8.90;6.43;;;;;;;;;;5014823;28;20314;-74
2021/12/17 05:31:52;;;;;;;8.93;6.37;;;;;;;;;;5023185;28;20284;-75
2021/12/17 05:34:24;;;;;;;8.93;6.53;;;;;;;;;;4995638;28;20625;-74
2021/12/17 05:36:54;;;;;;;8.97;6.50;;;;;;;;;;4988908;28;20216;-74
2021/12/17 05:39:27;;;;;;;8.47;6.30;;;;;;;;;;4999520;28;20224;-74
2021/12/17 05:41:54;;;;;;;10.03;6.83;;;;;;;;;;5007492;28;20290;-74
2021/12/17 05:45:06;;;;;;;8.63;6.50;;;;;;;;;;4992191;28;20888;-74
2021/12/17 05:47:31;;;;;;;9.33;6.93;;;;;;;;;;5004810;28;20298;-74
2021/12/17 05:50:02;;;;;;;9.83;7.30;;;;;;;;;;5012598;28;20690;-74
2021/12/17 05:52:30;;;;;;;10.47;7.90;;;;;;;;;;4990741;28;20224;-73
2021/12/17 05:54:56;;;;;;;8.67;6.83;;;;;;;;;;5014748;28;20645;-74
2021/12/17 05:57:21;;;;;;;10.60;7.93;;;;;;;;;;5014065;28;20234;-75
2021/12/17 05:59:50;;;;;;;11.40;8.30;;;;;;;;;;5014464;28;20224;-74
2021/12/17 06:02:18;;;;;;;12.37;8.37;;;;;;;;;;5006657;28;20713;-74
2021/12/17 06:04:48;;;;;;;11.17;7.43;;;;;;;;;;4980069;28;20714;-74
2021/12/17 06:07:30;;;;;;;13.37;9.40;;;;;;;;;;5000764;28;20274;-74
2021/12/17 06:10:04;;;;;;;13.20;8.87;;;;;;;;;;5014651;28;20235;-74
2021/12/17 06:12:37;;;;;;;16.97;9.93;;;;;;;;;;5021973;28;20220;-74
2021/12/17 06:15:06;;;;;;;16.70;9.97;;;;;;;;;;4978083;28;20232;-74
2021/12/17 06:17:32;;;;;;;17.00;10.50;;;;;;;;;;5002320;28;20697;-74
2021/12/17 06:20:00;;;;;;;17.73;10.93;;;;;;;;;;5021850;28;20233;-74
2021/12/17 06:22:25;;;;;;;17.77;11.13;;;;;;;;;;4987617;28;20227;-73
2021/12/17 06:24:59;;;;;;;20.00;12.30;;;;;;;;;;5006740;28;20252;-74
2021/12/17 06:27:27;;;;;;;19.97;11.97;;;;;;;;;;4994302;28;20591;-74
2021/12/17 06:29:59;;;;;;;20.07;11.87;;;;;;;;;;4978167;28;20713;-75
2021/12/17 06:32:27;;;;;;;20.20;11.97;;;;;;;;;;5009448;28;20224;-74
2021/12/17 06:34:53;;;;;;;20.83;11.77;;;;;;;;;;4996151;28;20647;-75
2021/12/17 06:37:20;;;;;;;22.50;12.40;;;;;;;;;;5005027;28;20303;-75
2021/12/17 06:39:52;;;;;;;19.57;11.37;;;;;;;;;;5025030;28;20217;-74
2021/12/17 06:42:20;;;;;;;15.77;9.87;;;;;;;;;;5007422;28;20227;-74
2021/12/17 06:44:48;;;;;;;13.70;8.53;;;;;;;;;;5007985;28;20228;-75
2021/12/17 06:47:34;;;;;;;14.93;8.90;;;;;;;;;;5026794;28;20220;-74
2021/12/17 06:54:42;;;;;;;14.07;8.67;;;;;;;;;;4997377;28;20732;-74
2021/12/17 07:17:11;;;;;;;11.87;7.57;;;;;;;;;;5018449;28;20704;-75
2021/12/17 07:17:48;;;;;;;11.83;7.20;;;;;;;;;;5009833;28;20596;-75
2021/12/17 07:20:55;;;;;;;10.23;7.33;;;;;;;;;;5010829;28;20774;-75
2021/12/17 07:23:17;;;;;;;7.93;6.10;;;;;;;;;;4999742;28;20358;-74
2021/12/17 07:29:06;;;;;;;9.53;5.73;;;;;;;;;;5021861;28;20216;-74
2021/12/17 07:34:00;;;;;;;8.13;5.33;;;;;;;;;;5006530;28;20601;-71
2021/12/17 07:36:41;;;;;;;6.63;4.60;;;;;;;;;;5009606;28;20218;-73
2021/12/17 07:39:07;;;;;;;6.83;3.90;;;;;;;;;;5025920;28;20219;-74
2021/12/17 07:42:08;;;;;;;6.20;3.97;;;;;;;;;;5019516;28;20216;-74
2021/12/17 07:45:08;;;;;;;6.30;3.93;;;;;;;;;;5003573;28;20225;-73
2021/12/17 07:47:56;;;;;;;6.90;3.90;;;;;;;;;;5000456;28;20250;-73
2021/12/17 07:50:33;;;;;;;5.93;4.23;;;;;;;;;;4998007;28;20213;-73
2021/12/17 07:53:13;;;;;;;7.33;4.17;;;;;;;;;;4998271;28;20591;-74
2021/12/17 07:56:04;;;;;;;4.97;3.70;;;;;;;;;;5015233;28;20678;-76
2021/12/17 07:58:34;;;;;;;6.07;4.00;;;;;;;;;;5038007;28;20219;-73
2021/12/17 08:01:05;;;;;;;5.70;4.00;;;;;;;;;;5015953;28;20220;-74
2021/12/17 08:03:31;;;;;;;5.97;4.07;;;;;;;;;;5033517;28;20224;-73
2021/12/17 08:06:00;;;;;;;7.77;4.50;;;;;;;;;;5046710;28;20293;-74
2021/12/17 08:08:30;;;;;;;7.30;4.13;;;;;;;;;;4981846;28;20220;-73
2021/12/17 08:11:12;;;;;;;6.73;4.43;;;;;;;;;;4985313;28;20231;-74
2021/12/17 08:13:45;;;;;;;7.07;4.70;;;;;;;;;;4980884;28;20235;-75
2021/12/17 08:32:07;;;;;;;6.60;4.03;;;;;;;;;;5016284;28;20220;-73
2021/12/17 08:34:47;;;;;;;8.03;5.23;;;;;;;;;;4998188;28;20252;-73
2021/12/17 08:37:17;;;;;;;6.83;4.20;;;;;;;;;;4996570;28;20225;-73
2021/12/17 08:39:46;;;;;;;5.77;3.43;;;;;;;;;;5017104;28;20228;-73
2021/12/17 08:42:32;;;;;;;4.73;2.80;;;;;;;;;;5005006;28;20212;-73
2021/12/17 08:45:00;;;;;;;4.40;2.87;;;;;;;;;;4996637;28;20220;-73
2021/12/17 08:47:49;;;;;;;3.97;2.33;;;;;;;;;;4998832;28;20224;-74
2021/12/17 08:50:38;;;;;;;1.90;1.60;;;;;;;;;;4977178;28;20220;-74
2021/12/17 08:53:10;;;;;;;1.70;1.33;;;;;;;;;;4995781;28;20595;-74
2021/12/17 08:55:36;;;;;;;1.10;1.00;;;;;;;;;;5024364;28;20656;-73
2021/12/17 08:58:04;;;;;;;1.20;1.10;;;;;;;;;;5000490;28;20224;-73
2021/12/17 09:00:33;;;;;;;2.03;1.30;;;;;;;;;;5025325;28;20303;-72
2021/12/17 09:03:02;;;;;;;2.27;1.47;;;;;;;;;;5012484;28;20230;-72
2021/12/17 09:05:44;;;;;;;2.03;1.40;;;;;;;;;;5000579;28;20228;-73
2021/12/17 09:08:13;;;;;;;2.20;1.40;;;;;;;;;;4997550;28;20244;-74
2021/12/17 09:10:48;;;;;;;1.80;1.00;;;;;;;;;;5014277;28;20220;-74
2021/12/17 09:13:17;;;;;;;5.03;4.00;;;;;;;;;;5015639;28;20638;-73
2021/12/17 09:15:47;;;;;;;3.13;2.67;;;;;;;;;;5005850;28;20275;-73
2021/12/17 09:18:26;;;;;;;2.43;1.97;;;;;;;;;;5011646;28;20292;-73
2021/12/17 09:21:01;;;;;;;2.30;1.60;;;;;;;;;;5022333;28;20223;-74
2021/12/17 09:23:46;;;;;;;2.07;1.40;;;;;;;;;;5016793;28;20306;-73
2021/12/17 09:26:13;;;;;;;3.03;1.83;;;;;;;;;;4991411;28;20285;-74
2021/12/17 09:28:43;;;;;;;2.77;1.97;;;;;;;;;;4992567;28;20590;-73
2021/12/17 09:31:13;;;;;;;3.70;2.20;;;;;;;;;;4995153;28;20216;-73
2021/12/17 09:33:40;;;;;;;3.73;2.33;;;;;;;;;;5000395;28;20229;-73
2021/12/17 09:36:07;;;;;;;2.90;2.30;;;;;;;;;;5005978;28;20216;-72
2021/12/17 09:38:33;;;;;;;3.70;2.33;;;;;;;;;;5028488;28;20227;-73
2021/12/17 09:41:03;;;;;;;3.23;2.33;;;;;;;;;;4983581;28;20237;-74
2021/12/17 09:43:36;;;;;;;3.37;2.40;;;;;;;;;;4978126;28;20284;-73
2021/12/17 09:46:05;;;;;;;4.60;2.77;;;;;;;;;;5014791;28;20212;-73
2021/12/17 09:48:35;;;;;;;4.37;2.73;;;;;;;;;;5014789;28;20216;-74
2021/12/17 09:51:05;;;;;;;4.00;2.93;;;;;;;;;;5010242;28;20632;-73
2021/12/17 09:53:35;;;;;;;4.83;2.77;;;;;;;;;;5010614;28;20329;-73
2021/12/17 09:56:01;;;;;;;4.33;2.43;;;;;;;;;;4997177;28;20224;-75
2021/12/17 09:58:27;;;;;;;5.33;3.10;;;;;;;;;;5027012;28;20270;-74
2021/12/17 10:00:52;;;;;;;4.27;2.73;;;;;;;;;;5024415;28;20225;-74
2021/12/17 10:03:19;;;;;;;3.87;2.40;;;;;;;;;;5007788;28;20875;-75
2021/12/17 10:05:49;;;;;;;3.90;2.70;;;;;;;;;;5020041;28;20316;-74
2021/12/17 10:08:22;;;;;;;3.57;2.50;;;;;;;;;;5019463;28;20228;-74
2021/12/17 10:11:14;;;;;;;3.07;2.30;;;;;;;;;;5013595;28;20825;-75
2021/12/17 10:13:40;;;;;;;3.13;2.30;;;;;;;;;;5012184;28;20228;-74
2021/12/17 10:16:08;;;;;;;3.07;2.33;;;;;;;;;;5026330;28;20224;-74
2021/12/17 10:18:34;;;;;;;3.07;2.37;;;;;;;;;;5012205;28;20220;-74
2021/12/17 10:21:03;;;;;;;3.37;2.00;;;;;;;;;;4997695;28;20239;-74
2021/12/17 10:23:29;;;;;;;1.67;1.37;;;;;;;;;;4998567;28;20235;-74
2021/12/17 10:25:56;;;;;;;3.37;1.57;;;;;;;;;;5031220;28;20212;-75
2021/12/17 10:28:29;;;;;;;1.70;1.40;;;;;;;;;;5031189;28;20211;-74
2021/12/17 10:30:55;;;;;;;2.23;1.60;;;;;;;;;;5030411;28;20215;-73
2021/12/17 10:33:24;;;;;;;2.33;1.70;;;;;;;;;;5046140;28;20211;-73
2021/12/17 10:35:52;;;;;;;2.50;1.37;;;;;;;;;;5033959;28;20299;-74
2021/12/17 10:38:23;;;;;;;2.90;1.30;;;;;;;;;;5020151;28;20245;-74
2021/12/17 10:41:09;;;;;;;1.47;1.33;;;;;;;;;;4978979;28;20229;-74
2021/12/17 10:43:38;;;;;;;1.50;1.20;;;;;;;;;;5011168;28;20235;-74
2021/12/17 10:46:21;;;;;;;2.63;1.30;;;;;;;;;;4994478;28;20228;-75
2021/12/17 10:48:56;;;;;;;2.33;1.40;;;;;;;;;;5010299;28;20274;-74
2021/12/17 10:54:02;;;;;;;2.83;1.80;;;;;;;;;;5014054;28;20235;-74
2021/12/17 10:56:30;;;;;;;2.00;1.50;;;;;;;;;;5012883;28;20225;-75
2021/12/17 10:59:08;;;;;;;2.60;1.60;;;;;;;;;;5010160;28;20215;-74
2021/12/17 11:01:41;;;;;;;2.53;1.70;;;;;;;;;;5012328;28;20220;-73
2021/12/17 11:04:26;;;;;;;2.13;1.67;;;;;;;;;;5013768;28;20220;-74
2021/12/17 11:06:54;;;;;;;3.83;2.53;;;;;;;;;;5025831;28;20627;-73
2021/12/17 11:09:38;;;;;;;2.40;1.93;;;;;;;;;;5026822;28;20293;-74
2021/12/17 11:12:24;;;;;;;2.33;1.87;;;;;;;;;;5024761;28;20700;-74
2021/12/17 11:14:51;;;;;;;2.77;1.80;;;;;;;;;;5025395;28;20720;-73
2021/12/17 11:17:21;;;;;;;2.50;1.90;;;;;;;;;;5026711;28;20238;-73
2021/12/17 11:19:47;;;;;;;2.10;1.90;;;;;;;;;;5005463;28;20315;-72
2021/12/17 11:22:17;;;;;;;1.93;1.57;;;;;;;;;;5010305;28;20363;-73
2021/12/17 11:24:45;;;;;;;1.73;1.40;;;;;;;;;;5006288;28;20224;-73
2021/12/17 11:27:10;;;;;;;2.80;2.27;;;;;;;;;;5005993;28;20319;-73
2021/12/17 11:29:36;;;;;;;1.53;1.27;;;;;;;;;;5011903;28;20265;-73
2021/12/17 11:32:05;;;;;;;1.80;1.50;;;;;;;;;;5008151;28;20617;-74
2021/12/17 11:34:33;;;;;;;1.33;1.23;;;;;;;;;;5026333;28;20223;-74
2021/12/17 11:37:03;;;;;;;1.50;1.20;;;;;;;;;;5019698;28;20646;-74
2021/12/17 11:39:35;;;;;;;1.97;1.70;;;;;;;;;;5007821;28;20223;-77
2021/12/17 11:42:08;;;;;;;1.90;1.50;;;;;;;;;;5031260;28;20890;-74
2021/12/17 11:44:40;;;;;;;2.57;2.03;;;;;;;;;;5008747;28;20233;-75
2021/12/17 11:47:08;;;;;;;2.10;1.90;;;;;;;;;;4961069;28;20225;-74
2021/12/17 11:49:51;;;;;;;1.70;1.60;;;;;;;;;;5009732;28;20219;-75
2021/12/17 11:52:43;;;;;;;1.87;1.50;;;;;;;;;;4977516;28;20225;-75
2021/12/17 11:55:20;;;;;;;2.20;1.47;;;;;;;;;;5028749;28;20239;-75
2021/12/17 11:57:49;;;;;;;2.40;1.60;;;;;;;;;;5008679;28;20711;-74
2021/12/17 12:00:15;;;;;;;1.80;1.70;;;;;;;;;;5008432;28;20323;-75
2021/12/17 12:02:53;;;;;;;1.90;1.70;;;;;;;;;;4979947;28;20633;-75
2021/12/17 12:05:40;;;;;;;2.23;1.80;;;;;;;;;;5012567;28;20227;-75
2021/12/17 12:08:39;;;;;;;2.53;1.70;;;;;;;;;;4993445;28;20225;-76
2021/12/17 12:11:18;;;;;;;2.60;1.70;;;;;;;;;;5006634;28;20251;-75
2021/12/17 12:13:50;;;;;;;1.60;1.50;;;;;;;;;;5002648;28;20231;-74
2021/12/17 12:16:26;;;;;;;1.60;1.50;;;;;;;;;;5028978;28;20352;-74
2021/12/17 12:18:53;;;;;;;1.87;1.57;;;;;;;;;;5021906;28;20277;-75
2021/12/17 12:21:25;;;;;;;1.83;1.63;;;;;;;;;;5015181;28;20259;-75
2021/12/17 12:23:55;;;;;;;2.63;1.73;;;;;;;;;;5017421;28;20224;-75
2021/12/17 12:26:25;;;;;;;2.40;1.60;;;;;;;;;;5016879;28;20228;-74
2021/12/17 12:29:04;;;;;;;1.70;1.40;;;;;;;;;;5012955;28;20252;-75
2021/12/17 12:31:32;;;;;;;2.93;1.60;;;;;;;;;;4996959;28;20683;-75
2021/12/17 12:34:06;;;;;;;1.70;1.60;;;;;;;;;;5034298;28;20233;-74
2021/12/17 12:37:08;;;;;;;2.60;1.70;;;;;;;;;;5032691;28;20689;-75
2021/12/17 12:39:47;;;;;;;1.57;1.47;;;;;;;;;;5022999;28;20232;-75
2021/12/17 12:42:17;;;;;;;1.97;1.77;;;;;;;;;;4999929;28;20737;-74
2021/12/17 12:44:46;;;;;;;2.53;2.10;;;;;;;;;;5022879;28;20274;-75
2021/12/17 12:47:38;;;;;;;2.47;2.10;;;;;;;;;;5036293;28;20223;-75
2021/12/17 12:50:04;;;;;;;2.23;1.80;;;;;;;;;;5037878;28;20219;-75
2021/12/17 12:52:32;;;;;;;2.60;2.17;;;;;;;;;;5032186;28;20228;-76
2021/12/17 12:55:18;;;;;;;2.20;1.87;;;;;;;;;;5019907;28;20233;-75
2021/12/17 12:57:53;;;;;;;2.20;1.80;;;;;;;;;;5017635;28;20231;-76
2021/12/17 13:00:29;;;;;;;2.10;1.90;;;;;;;;;;5026765;28;20595;-77
2021/12/17 13:03:07;;;;;;;3.00;1.83;;;;;;;;;;5013602;28;20607;-76
2021/12/17 13:05:33;;;;;;;2.63;2.10;;;;;;;;;;5019021;28;20216;-75
2021/12/17 13:08:08;;;;;;;4.63;2.87;;;;;;;;;;5016792;28;20228;-78
2021/12/17 13:10:41;;;;;;;4.43;2.70;;;;;;;;;;5000485;28;20710;-78
2021/12/17 13:13:28;;;;;;;4.10;2.60;;;;;;;;;;5018036;28;20228;-77
2021/12/17 13:16:08;;;;;;;4.60;2.80;;;;;;;;;;5015163;28;20576;-76
2021/12/17 13:23:56;;;;;;;3.90;3.20;;;;;;;;;;5022892;28;20727;-76
2021/12/17 13:26:24;;;;;;;3.90;3.50;;;;;;;;;;4998409;28;20789;-77
2021/12/17 13:29:18;;;;;;;4.17;3.33;;;;;;;;;;5030020;28;20294;-77
2021/12/17 13:31:46;;;;;;;4.57;3.60;;;;;;;;;;5040393;28;20337;-76
2021/12/17 13:34:26;;;;;;;6.30;4.13;;;;;;;;;;5002377;28;20230;-76
2021/12/17 13:37:10;;;;;;;5.10;4.07;;;;;;;;;;5028448;28;20693;-75
2021/12/17 13:39:56;;;;;;;6.10;4.23;;;;;;;;;;5018929;28;20225;-74
2021/12/17 13:42:29;;;;;;;6.27;4.83;;;;;;;;;;5014011;28;20216;-76
2021/12/17 13:44:59;;;;;;;5.70;5.07;;;;;;;;;;5007585;28;20247;-74
2021/12/17 13:47:33;;;;;;;5.93;4.70;;;;;;;;;;5020071;28;20725;-74
2021/12/17 13:50:17;;;;;;;6.40;4.87;;;;;;;;;;5011725;28;20216;-75
2021/12/17 13:53:02;;;;;;;5.23;4.27;;;;;;;;;;5009746;28;20219;-74
2021/12/17 13:55:30;;;;;;;5.03;3.73;;;;;;;;;;5025155;28;20235;-76
2021/12/17 13:57:59;;;;;;;6.07;3.63;;;;;;;;;;5015358;28;20220;-75
2021/12/17 14:00:39;;;;;;;5.00;3.80;;;;;;;;;;4997124;28;20761;-75
2021/12/17 14:03:07;;;;;;;4.27;3.60;;;;;;;;;;5017779;28;20366;-74
2021/12/17 14:05:46;;;;;;;4.43;3.63;;;;;;;;;;5004181;28;20735;-74
2021/12/17 14:08:15;;;;;;;3.13;2.83;;;;;;;;;;5011353;28;20234;-73
2021/12/17 14:10:41;;;;;;;2.90;2.60;;;;;;;;;;5028795;28;20223;-73
2021/12/17 14:13:15;;;;;;;3.00;2.50;;;;;;;;;;5044561;28;20225;-74
2021/12/17 14:15:41;;;;;;;2.80;2.50;;;;;;;;;;5019778;28;20589;-74
2021/12/17 14:18:07;;;;;;;2.33;2.10;;;;;;;;;;5020751;28;20220;-75
2021/12/17 14:20:47;;;;;;;2.80;2.43;;;;;;;;;;5032150;28;20229;-75
2021/12/17 14:23:37;;;;;;;4.00;2.73;;;;;;;;;;5024632;28;20236;-75
2021/12/17 14:26:06;;;;;;;2.47;2.23;;;;;;;;;;5006808;28;20228;-75
2021/12/17 14:28:36;;;;;;;3.10;2.67;;;;;;;;;;5013038;28;20693;-75
2021/12/17 14:31:03;;;;;;;2.50;2.30;;;;;;;;;;5003938;28;20612;-75
2021/12/17 14:33:30;;;;;;;3.60;2.40;;;;;;;;;;4994331;28;20243;-75
2021/12/17 14:36:02;;;;;;;3.17;2.63;;;;;;;;;;5030528;28;20224;-75
2021/12/17 14:38:57;;;;;;;2.90;2.53;;;;;;;;;;5030470;28;20221;-75
2021/12/17 14:41:33;;;;;;;4.27;3.13;;;;;;;;;;4994605;28;20236;-75
2021/12/17 14:44:18;;;;;;;3.53;2.77;;;;;;;;;;4979156;28;20232;-73
2021/12/17 14:47:01;;;;;;;2.77;2.50;;;;;;;;;;4999050;28;20910;-73
2021/12/17 15:03:20;;;;;;;3.73;2.70;;;;;;;;;;5029870;28;20207;-76
2021/12/17 15:05:45;;;;;;;2.67;2.40;;;;;;;;;;5024741;28;20224;-76
2021/12/17 15:08:13;;;;;;;2.77;2.40;;;;;;;;;;4995246;28;20225;-76
2021/12/17 15:10:45;;;;;;;2.67;2.00;;;;;;;;;;4996616;28;20224;-75
2021/12/17 15:13:10;;;;;;;2.60;2.10;;;;;;;;;;4997850;28;20229;-76
2021/12/17 15:15:39;;;;;;;2.20;1.80;;;;;;;;;;5012521;28;20225;-75
2021/12/17 15:18:13;;;;;;;2.50;2.10;;;;;;;;;;4993241;28;20228;-76
2021/12/17 15:20:48;;;;;;;2.97;2.10;;;;;;;;;;4995640;28;20256;-75
2021/12/17 15:23:14;;;;;;;1.73;1.60;;;;;;;;;;5012980;28;20224;-75
2021/12/17 15:25:40;;;;;;;3.13;2.23;;;;;;;;;;5005030;28;20265;-75
2021/12/17 15:28:13;;;;;;;2.90;2.33;;;;;;;;;;5021202;28;20760;-75
2021/12/17 15:30:43;;;;;;;3.53;2.27;;;;;;;;;;4981414;28;20224;-75
2021/12/17 15:33:09;;;;;;;2.97;2.60;;;;;;;;;;4977859;28;20763;-76
2021/12/17 15:35:35;;;;;;;4.63;3.70;;;;;;;;;;4993711;28;20220;-75
2021/12/17 15:38:04;;;;;;;7.50;6.20;;;;;;;;;;5023276;28;20220;-75
2021/12/17 15:40:37;;;;;;;4.20;3.00;;;;;;;;;;4986953;28;20621;-75
2021/12/17 15:43:05;;;;;;;4.27;2.90;;;;;;;;;;5037685;28;20216;-75
2021/12/17 15:45:39;;;;;;;5.57;4.47;;;;;;;;;;5005870;28;20227;-75
2021/12/17 15:48:06;;;;;;;3.67;3.10;;;;;;;;;;5016598;28;20243;-76
2021/12/17 15:50:36;;;;;;;3.93;3.27;;;;;;;;;;5005135;28;20215;-74
2021/12/17 15:53:05;;;;;;;4.33;3.93;;;;;;;;;;5012782;28;20216;-75
2021/12/17 15:55:32;;;;;;;4.47;3.40;;;;;;;;;;5026583;28;20606;-76
2021/12/17 15:58:03;;;;;;;4.37;3.43;;;;;;;;;;5003256;28;20224;-76
2021/12/17 16:00:36;;;;;;;5.27;4.30;;;;;;;;;;5004445;28;20287;-76
2021/12/17 16:03:03;;;;;;;4.87;4.07;;;;;;;;;;5011628;28;20240;-73
2021/12/17 16:05:33;;;;;;;4.20;3.80;;;;;;;;;;5012133;28;20235;-74
2021/12/17 16:07:58;;;;;;;6.43;4.80;;;;;;;;;;4993768;28;20212;-74
2021/12/17 16:18:56;;;;;;;5.77;4.37;;;;;;;;;;5000250;28;20217;-75
2021/12/17 16:21:27;;;;;;;6.83;5.03;;;;;;;;;;4998982;28;20220;-76
2021/12/17 16:23:57;;;;;;;6.07;5.47;;;;;;;;;;4997732;28;20224;-75
2021/12/17 16:26:23;;;;;;;7.90;6.07;;;;;;;;;;5006092;28;20291;-75
2021/12/17 16:28:49;;;;;;;11.93;7.70;;;;;;;;;;5012022;28;20737;-76
2021/12/17 16:31:16;;;;;;;9.23;6.10;;;;;;;;;;5015264;28;20251;-74
2021/12/17 16:33:41;;;;;;;7.50;5.83;;;;;;;;;;5023205;28;20243;-74
2021/12/17 16:36:07;;;;;;;6.70;5.53;;;;;;;;;;5009120;28;20288;-74
2021/12/17 16:38:35;;;;;;;7.97;7.03;;;;;;;;;;5007732;28;20217;-79
2021/12/17 16:41:09;;;;;;;8.27;6.07;;;;;;;;;;5024450;28;20315;-74
2021/12/17 16:43:37;;;;;;;9.43;6.97;;;;;;;;;;4989624;28;20225;-76
2021/12/17 16:48:35;;;;;;;10.37;7.40;;;;;;;;;;5024645;28;20224;-75
2021/12/17 16:51:03;;;;;;;8.30;6.10;;;;;;;;;;5043514;28;20226;-75
2021/12/17 16:53:29;;;;;;;7.30;6.57;;;;;;;;;;5034257;28;20310;-75
2021/12/17 16:55:55;;;;;;;8.77;7.50;;;;;;;;;;5024200;28;20251;-75
2021/12/17 16:58:21;;;;;;;10.80;9.70;;;;;;;;;;5022679;28;20690;-75
2021/12/17 17:00:46;;;;;;;10.53;9.40;;;;;;;;;;5032982;28;20228;-74
2021/12/17 17:03:14;;;;;;;8.97;7.87;;;;;;;;;;5035084;28;20304;-76
2021/12/17 17:05:42;;;;;;;9.10;8.00;;;;;;;;;;5031190;28;20227;-74
2021/12/17 17:08:10;;;;;;;8.77;7.87;;;;;;;;;;5010480;28;20224;-76
2021/12/17 17:10:38;;;;;;;10.77;7.50;;;;;;;;;;5020788;28;20307;-75
2021/12/17 17:13:06;;;;;;;7.43;6.60;;;;;;;;;;4988659;28;20216;-77
2021/12/17 17:15:36;;;;;;;9.90;6.87;;;;;;;;;;5026181;28;20303;-76
2021/12/17 17:18:05;;;;;;;24.43;16.37;;;;;;;;;;5006437;28;20216;-77
2021/12/17 17:20:32;;;;;;;10.20;8.13;;;;;;;;;;5027578;28;20235;-76
2021/12/17 17:23:02;;;;;;;12.17;10.13;;;;;;;;;;5037731;28;20225;-76
2021/12/17 17:25:30;;;;;;;9.43;7.50;;;;;;;;;;5024606;28;20220;-76
2021/12/17 17:27:56;;;;;;;8.57;7.10;;;;;;;;;;5017333;28;20230;-77
2021/12/17 17:30:23;;;;;;;11.83;9.37;;;;;;;;;;5007875;28;20215;-77
2021/12/17 17:32:49;;;;;;;10.00;8.23;;;;;;;;;;5016926;28;20226;-76
2021/12/17 17:35:17;;;;;;;12.17;8.90;;;;;;;;;;4995057;28;20229;-76
2021/12/17 17:37:43;;;;;;;9.83;7.50;;;;;;;;;;4996863;28;20225;-76
2021/12/17 17:40:15;;;;;;;9.80;7.70;;;;;;;;;;5011989;28;20233;-76
2021/12/17 17:42:44;;;;;;;12.40;7.97;;;;;;;;;;4980297;28;20213;-76
2021/12/17 17:45:10;;;;;;;10.50;8.33;;;;;;;;;;5013443;28;20235;-76
2021/12/17 17:47:45;;;;;;;12.07;8.13;;;;;;;;;;4981711;28;20229;-76
2021/12/17 17:50:12;;;;;;;10.63;8.47;;;;;;;;;;5002354;28;20208;-76
2021/12/17 17:52:41;;;;;;;12.40;9.27;;;;;;;;;;5021960;28;20865;-77
2021/12/17 17:55:09;;;;;;;12.83;9.60;;;;;;;;;;5029047;28;20307;-76
2021/12/17 17:57:34;;;;;;;11.23;8.13;;;;;;;;;;5035709;28;20995;-77
2021/12/17 18:00:02;;;;;;;10.90;7.90;;;;;;;;;;5000936;28;20232;-76
2021/12/17 18:02:57;;;;;;;11.37;8.27;;;;;;;;;;5036602;28;20220;-76
2021/12/17 18:05:28;;;;;;;11.70;8.70;;;;;;;;;;5040199;28;20235;-75
2021/12/17 18:07:56;;;;;;;11.93;8.63;;;;;;;;;;5010195;28;20225;-77
2021/12/17 18:10:42;;;;;;;11.63;7.60;;;;;;;;;;5030228;28;20234;-76